Time,TemperatureF,DewpointF,PressureIn,WindDirection,WindDirectionDegrees,WindSpeedMPH,WindSpeedGustMPH,Humidity,HourlyPrecipIn,Conditions,Clouds,dailyrainin,SoftwareType,DateUTC
2013-02-27 00:00:00,33.8,32.5,29.46,NW,306,6.9,6.9,95,0.01,,,0.77,WeatherDisplay:10.37,2013-02-27 06:00:00,
2013-02-27 00:05:00,33.7,32.4,29.46,WNW,288,3.5,3.5,95,0.01,RA,,0.00,WeatherDisplay:10.37,2013-02-27 06:05:00,
2013-02-27 00:10:00,33.7,32.4,29.47,West,279,3.5,3.5,95,0.01,RA,,0.00,WeatherDisplay:10.37,2013-02-27 06:10:00,
2013-02-27 00:15:00,33.6,32.3,29.47,WNW,286,5.8,5.8,95,0.01,CLR,,0.00,WeatherDisplay:10.37,2013-02-27 06:15:00,
2013-02-27 00:20:00,33.6,32.3,29.47,WNW,289,6.9,6.9,95,0.01,CLR,,0.00,WeatherDisplay:10.37,2013-02-27 06:20:00,
2013-02-27 00:25:00,33.5,32.2,29.47,WNW,286,5.0,5.0,95,0.01,CLR,,0.00,WeatherDisplay:10.37,2013-02-27 06:25:00,
2013-02-27 00:30:00,33.5,32.2,29.47,West,271,5.8,5.8,95,0.01,CLR,,0.00,WeatherDisplay:10.37,2013-02-27 06:30:00,
2013-02-27 00:35:00,33.4,32.1,29.46,West,271,3.5,3.5,95,0.01,CLR,,0.00,WeatherDisplay:10.37,2013-02-27 06:35:00,
2013-02-27 00:40:00,33.4,32.1,29.46,West,271,2.3,2.3,95,0.01,CLR,,0.00,WeatherDisplay:10.37,2013-02-27 06:40:00,
2013-02-27 00:45:00,33.4,32.1,29.46,West,272,4.6,4.6,95,0.01,CLR,,0.00,WeatherDisplay:10.37,2013-02-27 06:45:00,
2013-02-27 00:50:00,33.4,32.1,29.47,West,273,3.5,3.5,95,0.01,CLR,,0.00,WeatherDisplay:10.37,2013-02-27 06:50:00,
2013-02-27 00:55:00,33.4,32.1,29.46,West,270,3.5,3.5,95,0.00,CLR,,0.00,WeatherDisplay:10.37,2013-02-27 06:55:00,
2013-02-27 01:00:00,33.4,32.1,29.46,West,268,3.5,3.5,95,0.00,CLR,,0.00,WeatherDisplay:10.37,2013-02-27 07:00:00,
2013-02-27 01:05:00,33.4,32.1,29.47,West,269,3.5,3.5,95,0.00,CLR,,0.00,WeatherDisplay:10.37,2013-02-27 07:05:00,
2013-02-27 01:10:00,33.4,32.1,29.47,West,267,4.6,4.6,95,0.00,CLR,,0.00,WeatherDisplay:10.37,2013-02-27 07:10:00,
2013-02-27 01:15:00,33.3,32.0,29.47,WSW,246,5.8,5.8,95,0.00,CLR,,0.00,WeatherDisplay:10.37,2013-02-27 07:15:00,
2013-02-27 01:20:00,33.4,32.1,29.47,WSW,245,5.0,5.0,95,0.00,CLR,,0.00,WeatherDisplay:10.37,2013-02-27 07:20:00,
2013-02-27 01:25:00,33.3,32.0,29.48,WSW,242,5.8,5.8,95,0.00,CLR,,0.00,WeatherDisplay:10.37,2013-02-27 07:25:00,
2013-02-27 01:30:00,33.3,32.0,29.48,SW,229,7.0,7.0,95,0.00,CLR,,0.00,WeatherDisplay:10.37,2013-02-27 07:30:00,
2013-02-27 01:35:00,33.3,32.0,29.48,WSW,240,9.2,9.2,95,0.00,CLR,,0.00,WeatherDisplay:10.37,2013-02-27 07:35:00,
2013-02-27 01:40:00,33.3,32.0,29.48,WSW,242,9.2,9.2,95,0.00,CLR,,0.00,WeatherDisplay:10.37,2013-02-27 07:40:00,
2013-02-27 01:45:00,33.3,32.0,29.48,SW,231,11.5,11.5,95,0.00,CLR,,0.00,WeatherDisplay:10.37,2013-02-27 07:45:00,
2013-02-27 01:50:00,33.3,32.0,29.48,SW,225,9.0,9.0,95,0.00,CLR,,0.00,WeatherDisplay:10.37,2013-02-27 07:50:00,
2013-02-27 01:55:00,33.3,32.0,29.48,WSW,239,11.5,11.5,95,0.00,CLR,,0.00,WeatherDisplay:10.37,2013-02-27 07:55:00,
2013-02-27 02:00:00,33.3,32.0,29.48,SW,233,10.0,10.0,95,0.00,CLR,,0.00,WeatherDisplay:10.37,2013-02-27 08:00:00,
2013-02-27 02:05:00,33.3,32.0,29.48,SW,227,5.8,5.8,95,0.00,CLR,,0.00,WeatherDisplay:10.37,2013-02-27 08:05:00,
2013-02-27 02:10:00,33.3,32.0,29.48,SW,231,11.5,11.5,95,0.00,CLR,,0.00,WeatherDisplay:10.37,2013-02-27 08:10:00,
2013-02-27 02:15:00,33.2,31.9,29.48,SW,234,12.7,12.7,95,0.00,CLR,,0.00,WeatherDisplay:10.37,2013-02-27 08:15:00,
2013-02-27 02:20:00,33.2,31.9,29.48,WSW,240,11.5,11.5,95,0.00,CLR,,0.00,WeatherDisplay:10.37,2013-02-27 08:20:00,
2013-02-27 02:25:00,33.2,31.9,29.49,SW,226,11.5,11.5,95,0.00,CLR,,0.00,WeatherDisplay:10.37,2013-02-27 08:25:00,
2013-02-27 02:30:00,33.2,31.9,29.49,WSW,244,5.8,5.8,95,0.00,CLR,,0.00,WeatherDisplay:10.37,2013-02-27 08:30:00,
2013-02-27 02:35:00,33.2,32.2,29.49,SW,221,4.6,4.6,96,0.00,CLR,,0.00,WeatherDisplay:10.37,2013-02-27 08:35:00,
2013-02-27 02:40:00,33.2,32.2,29.49,WSW,247,4.6,4.6,96,0.00,CLR,,0.00,WeatherDisplay:10.37,2013-02-27 08:40:00,
2013-02-27 02:45:00,33.2,32.2,29.49,SW,230,3.0,12.0,96,0.00,CLR,,0.00,WeatherDisplay:10.37,2013-02-27 08:45:00,
2013-02-27 02:50:00,33.2,32.2,29.49,SW,229,12.7,12.7,96,0.00,CLR,,0.00,WeatherDisplay:10.37,2013-02-27 08:50:00,
2013-02-27 02:55:00,33.2,32.2,29.49,SW,236,12.7,12.7,96,0.00,CLR,,0.00,WeatherDisplay:10.37,2013-02-27 08:55:00,
2013-02-27 03:00:00,33.3,32.3,29.49,SW,231,11.5,11.5,96,0.00,CLR,,0.00,WeatherDisplay:10.37,2013-02-27 09:00:00,
2013-02-27 03:05:00,33.3,32.3,29.49,WSW,242,13.8,13.8,96,0.00,CLR,,0.00,WeatherDisplay:10.37,2013-02-27 09:05:00,
2013-02-27 03:10:00,33.3,32.3,29.49,WSW,244,11.5,11.5,96,0.00,CLR,,0.00,WeatherDisplay:10.37,2013-02-27 09:10:00,
2013-02-27 03:15:00,33.3,32.3,29.49,West,265,11.5,11.5,96,0.00,CLR,,0.00,WeatherDisplay:10.37,2013-02-27 09:15:00,
2013-02-27 03:20:00,33.3,32.0,29.50,WSW,241,5.8,5.8,95,0.00,CLR,,0.00,WeatherDisplay:10.37,2013-02-27 09:20:00,
2013-02-27 03:26:00,33.3,32.3,29.49,SW,221,9.2,9.2,96,0.00,CLR,,0.00,WeatherDisplay:10.37,2013-02-27 09:26:00,
2013-02-27 03:31:00,33.3,32.3,29.49,WSW,242,5.8,5.8,96,0.00,CLR,,0.00,WeatherDisplay:10.37,2013-02-27 09:31:00,
2013-02-27 03:36:00,33.3,32.3,29.49,SW,234,12.7,12.7,96,0.00,CLR,,0.00,WeatherDisplay:10.37,2013-02-27 09:36:00,
2013-02-27 03:41:00,33.2,32.2,29.50,SSW,213,13.8,13.8,96,0.00,CLR,,0.00,WeatherDisplay:10.37,2013-02-27 09:41:00,
2013-02-27 03:46:00,33.2,32.2,29.50,WSW,240,11.5,11.5,96,0.00,CLR,,0.00,WeatherDisplay:10.37,2013-02-27 09:46:00,
2013-02-27 03:51:00,33.2,32.2,29.50,West,259,11.5,11.5,96,0.00,CLR,,0.00,WeatherDisplay:10.37,2013-02-27 09:51:00,
2013-02-27 03:56:00,33.2,32.2,29.50,SW,215,15.0,15.0,96,0.00,CLR,,0.00,WeatherDisplay:10.37,2013-02-27 09:56:00,
2013-02-27 04:01:00,33.1,32.1,29.50,WSW,257,13.8,13.8,96,0.00,CLR,,0.00,WeatherDisplay:10.37,2013-02-27 10:01:00,
2013-02-27 04:06:00,33.1,32.1,29.50,SW,232,11.5,11.5,96,0.00,CLR,,0.00,WeatherDisplay:10.37,2013-02-27 10:06:00,
2013-02-27 04:11:00,33.2,32.2,29.51,SW,223,12.7,12.7,96,0.00,CLR,,0.00,WeatherDisplay:10.37,2013-02-27 10:11:00,
2013-02-27 04:16:00,33.1,32.1,29.50,SW,229,10.0,10.0,96,0.00,CLR,,0.00,WeatherDisplay:10.37,2013-02-27 10:16:00,
2013-02-27 04:21:00,33.1,32.1,29.50,SW,215,11.0,11.0,96,0.00,CLR,,0.00,WeatherDisplay:10.37,2013-02-27 10:21:00,
2013-02-27 04:26:00,33.1,32.1,29.51,SSW,213,13.8,13.8,96,0.00,CLR,,0.00,WeatherDisplay:10.37,2013-02-27 10:26:00,
2013-02-27 04:31:00,33.1,32.1,29.51,SW,226,5.8,5.8,96,0.00,CLR,,0.00,WeatherDisplay:10.37,2013-02-27 10:31:00,
2013-02-27 04:36:00,33.1,32.1,29.51,WSW,240,10.4,10.4,96,0.00,CLR,,0.00,WeatherDisplay:10.37,2013-02-27 10:36:00,
2013-02-27 04:41:00,33.1,32.1,29.51,SW,229,5.8,5.8,96,0.00,CLR,,0.00,WeatherDisplay:10.37,2013-02-27 10:41:00,
2013-02-27 04:46:00,33.1,32.1,29.51,WSW,238,9.2,9.2,96,0.00,CLR,,0.00,WeatherDisplay:10.37,2013-02-27 10:46:00,
2013-02-27 04:51:00,33.1,32.1,29.51,SW,223,4.6,4.6,96,0.00,CLR,,0.00,WeatherDisplay:10.37,2013-02-27 10:51:00,
2013-02-27 04:56:00,33.1,32.1,29.51,SW,219,5.8,5.8,96,0.00,CLR,,0.00,WeatherDisplay:10.37,2013-02-27 10:56:00,
2013-02-27 05:01:00,33.1,32.1,29.51,SW,222,9.2,9.2,96,0.00,CLR,,0.00,WeatherDisplay:10.37,2013-02-27 11:01:00,
2013-02-27 05:06:00,33.1,32.1,29.51,WSW,239,9.2,9.2,96,0.00,CLR,,0.00,WeatherDisplay:10.37,2013-02-27 11:06:00,
2013-02-27 05:11:00,33.1,32.1,29.52,SW,229,10.4,10.4,96,0.00,CLR,,0.00,WeatherDisplay:10.37,2013-02-27 11:11:00,
2013-02-27 05:16:00,33.1,32.1,29.52,WSW,247,11.5,11.5,96,0.00,CLR,,0.00,WeatherDisplay:10.37,2013-02-27 11:16:00,
2013-02-27 05:21:00,33.0,32.0,29.52,SW,234,11.0,11.0,96,0.00,CLR,,0.00,WeatherDisplay:10.37,2013-02-27 11:21:00,
2013-02-27 05:26:00,33.1,32.1,29.52,SW,236,5.0,5.0,96,0.00,CLR,,0.00,WeatherDisplay:10.37,2013-02-27 11:26:00,
2013-02-27 05:31:00,33.1,32.1,29.52,SW,229,5.8,5.8,96,0.00,CLR,,0.00,WeatherDisplay:10.37,2013-02-27 11:31:00,
2013-02-27 05:36:00,33.0,32.0,29.52,SW,229,10.4,10.4,96,0.00,CLR,,0.00,WeatherDisplay:10.37,2013-02-27 11:36:00,
2013-02-27 05:41:00,33.1,32.1,29.53,SW,235,6.0,6.0,96,0.00,CLR,,0.00,WeatherDisplay:10.37,2013-02-27 11:41:00,
2013-02-27 05:46:00,33.1,32.1,29.53,SW,236,5.8,5.8,96,0.00,CLR,,0.00,WeatherDisplay:10.37,2013-02-27 11:46:00,
2013-02-27 05:51:00,33.0,32.0,29.53,WSW,240,5.0,5.0,96,0.00,CLR,,0.00,WeatherDisplay:10.37,2013-02-27 11:51:00,
2013-02-27 05:56:00,33.0,32.0,29.53,SW,223,10.4,10.4,96,0.00,CLR,,0.00,WeatherDisplay:10.37,2013-02-27 11:56:00,
2013-02-27 06:01:00,33.0,32.0,29.53,SW,229,10.4,10.4,96,0.00,CLR,,0.00,WeatherDisplay:10.37,2013-02-27 12:01:00,
2013-02-27 06:06:00,33.0,32.0,29.53,SSW,213,10.4,10.4,96,0.00,CLR,,0.00,WeatherDisplay:10.37,2013-02-27 12:06:00,
2013-02-27 06:12:00,33.0,32.0,29.53,SW,218,13.8,13.8,96,0.00,CLR,,0.00,WeatherDisplay:10.37,2013-02-27 12:12:00,
2013-02-27 06:17:00,33.0,32.0,29.53,South,190,6.9,6.9,96,0.00,CLR,,0.00,WeatherDisplay:10.37,2013-02-27 12:17:00,
2013-02-27 06:22:00,32.9,31.9,29.54,SW,222,11.5,11.5,96,0.00,CLR,,0.00,WeatherDisplay:10.37,2013-02-27 12:22:00,
2013-02-27 06:27:00,32.9,31.9,29.54,SW,231,11.5,11.5,96,0.00,CLR,,0.00,WeatherDisplay:10.37,2013-02-27 12:27:00,
2013-02-27 06:32:00,32.9,31.9,29.54,WSW,240,11.5,11.5,96,0.00,CLR,,0.00,WeatherDisplay:10.37,2013-02-27 12:32:00,
2013-02-27 06:37:00,32.8,31.8,29.54,SW,221,8.1,8.1,96,0.00,CLR,,0.00,WeatherDisplay:10.37,2013-02-27 12:37:00,
2013-02-27 06:42:00,32.9,31.9,29.54,WSW,243,11.5,11.5,96,0.01,RA,,0.01,WeatherDisplay:10.37,2013-02-27 12:42:00,
2013-02-27 06:47:00,32.9,31.9,29.54,SSW,205,6.9,6.9,96,0.01,RA,,0.01,WeatherDisplay:10.37,2013-02-27 12:47:00,
2013-02-27 06:52:00,32.9,31.9,29.55,SW,229,11.5,11.5,96,0.01,CLR,,0.01,WeatherDisplay:10.37,2013-02-27 12:52:00,
2013-02-27 06:57:00,32.9,31.9,29.55,SW,236,11.5,11.5,96,0.01,CLR,,0.01,WeatherDisplay:10.37,2013-02-27 12:57:00,
2013-02-27 07:03:00,32.9,31.9,29.55,SW,223,11.5,11.5,96,0.01,CLR,,0.01,WeatherDisplay:10.37,2013-02-27 13:03:00,
2013-02-27 07:08:00,32.8,31.8,29.55,SW,236,11.5,11.5,96,0.01,CLR,,0.01,WeatherDisplay:10.37,2013-02-27 13:08:00,
2013-02-27 07:13:00,32.8,31.8,29.55,WSW,238,8.1,8.1,96,0.01,CLR,,0.01,WeatherDisplay:10.37,2013-02-27 13:13:00,
2013-02-27 07:18:00,32.8,31.8,29.55,SW,232,13.8,13.8,96,0.01,CLR,,0.01,WeatherDisplay:10.37,2013-02-27 13:18:00,
2013-02-27 07:23:00,32.9,31.9,29.56,SW,234,8.1,8.1,96,0.01,CLR,,0.01,WeatherDisplay:10.37,2013-02-27 13:23:00,
2013-02-27 07:28:00,32.9,31.9,29.56,SW,234,11.5,11.5,96,0.01,CLR,,0.01,WeatherDisplay:10.37,2013-02-27 13:28:00,
2013-02-27 07:33:00,32.9,31.9,29.56,WSW,238,11.5,11.5,96,0.01,CLR,,0.01,WeatherDisplay:10.37,2013-02-27 13:33:00,
2013-02-27 07:38:00,32.9,31.9,29.56,SW,217,10.4,10.4,96,0.01,CLR,,0.01,WeatherDisplay:10.37,2013-02-27 13:38:00,
2013-02-27 07:43:00,32.9,31.9,29.56,SW,221,9.2,9.2,96,0.00,CLR,,0.01,WeatherDisplay:10.37,2013-02-27 13:43:00,
2013-02-27 07:48:00,32.9,31.9,29.56,SW,232,6.9,6.9,96,0.00,CLR,,0.01,WeatherDisplay:10.37,2013-02-27 13:48:00,
2013-02-27 07:53:00,32.9,31.9,29.56,SW,223,10.4,10.4,96,0.00,CLR,,0.01,WeatherDisplay:10.37,2013-02-27 13:53:00,
2013-02-27 07:58:00,32.9,31.9,29.56,SW,218,9.2,9.2,96,0.00,CLR,,0.01,WeatherDisplay:10.37,2013-02-27 13:58:00,
2013-02-27 08:03:00,32.9,31.9,29.57,SW,229,13.8,13.8,96,0.00,CLR,,0.01,WeatherDisplay:10.37,2013-02-27 14:03:00,
2013-02-27 08:08:00,32.8,31.8,29.57,SW,226,5.8,5.8,96,0.00,CLR,,0.01,WeatherDisplay:10.37,2013-02-27 14:08:00,
2013-02-27 08:13:00,32.8,31.8,29.57,SW,231,13.8,13.8,96,0.00,CLR,,0.01,WeatherDisplay:10.37,2013-02-27 14:13:00,
2013-02-27 08:18:00,32.7,31.7,29.57,SW,228,10.4,10.4,96,0.00,CLR,,0.01,WeatherDisplay:10.37,2013-02-27 14:18:00,
2013-02-27 08:23:00,32.8,31.8,29.57,SW,221,10.4,10.4,96,0.00,CLR,,0.01,WeatherDisplay:10.37,2013-02-27 14:23:00,
2013-02-27 08:28:00,32.7,31.7,29.57,SW,230,17.3,17.3,96,0.00,CLR,,0.01,WeatherDisplay:10.37,2013-02-27 14:28:00,
2013-02-27 08:33:00,32.7,31.7,29.57,SW,217,11.0,11.0,96,0.00,CLR,,0.01,WeatherDisplay:10.37,2013-02-27 14:33:00,
2013-02-27 08:38:00,32.7,31.7,29.57,WNW,287,10.4,10.4,96,0.00,CLR,,0.01,WeatherDisplay:10.37,2013-02-27 14:38:00,
2013-02-27 08:43:00,32.6,31.6,29.57,SW,219,13.8,13.8,96,0.00,CLR,,0.01,WeatherDisplay:10.37,2013-02-27 14:43:00,
2013-02-27 08:48:00,32.6,31.6,29.58,WSW,239,9.0,9.0,96,0.00,CLR,,0.01,WeatherDisplay:10.37,2013-02-27 14:48:00,
2013-02-27 08:53:00,32.6,31.6,29.58,WSW,248,10.4,10.4,96,0.00,CLR,,0.01,WeatherDisplay:10.37,2013-02-27 14:53:00,
2013-02-27 08:58:00,32.6,31.6,29.58,SW,229,9.2,9.2,96,0.00,CLR,,0.01,WeatherDisplay:10.37,2013-02-27 14:58:00,
2013-02-27 09:03:00,32.6,31.6,29.57,WSW,238,6.9,6.9,96,0.00,CLR,,0.01,WeatherDisplay:10.37,2013-02-27 15:03:00,
2013-02-27 09:08:00,32.6,31.6,29.58,WSW,247,3.5,3.5,96,0.01,RA,,0.02,WeatherDisplay:10.37,2013-02-27 15:08:00,
2013-02-27 09:13:00,32.6,31.6,29.57,SW,225,10.4,10.4,96,0.01,RA,,0.02,WeatherDisplay:10.37,2013-02-27 15:13:00,
2013-02-27 09:18:00,32.7,31.7,29.57,SW,231,6.9,6.9,96,0.01,,,0.02,WeatherDisplay:10.37,2013-02-27 15:18:00,
2013-02-27 09:23:00,32.7,31.7,29.57,SW,223,9.2,9.2,96,0.01,CLR,,0.02,WeatherDisplay:10.37,2013-02-27 15:23:00,
2013-02-27 09:55:00,32.9,31.9,29.57,SW,224,5.0,14.0,96,0.00,CLR,,0.03,WeatherDisplay:10.37,2013-02-27 15:55:00,
2013-02-27 10:00:00,32.8,31.8,29.57,SW,221,10.4,10.4,96,0.02,CLR,,0.03,WeatherDisplay:10.37,2013-02-27 16:00:00,
2013-02-27 10:06:00,32.8,31.8,29.57,SW,234,11.5,11.5,96,0.02,CLR,,0.03,WeatherDisplay:10.37,2013-02-27 16:06:00,
2013-02-27 10:11:00,32.9,31.9,29.57,SW,222,6.0,6.0,96,0.01,CLR,,0.03,WeatherDisplay:10.37,2013-02-27 16:11:00,
2013-02-27 10:16:00,32.9,31.9,29.57,SW,232,13.8,13.8,96,0.01,CLR,,0.03,WeatherDisplay:10.37,2013-02-27 16:16:00,
2013-02-27 10:21:00,32.9,31.9,29.58,SW,230,16.1,16.1,96,0.01,CLR,,0.03,WeatherDisplay:10.37,2013-02-27 16:21:00,
2013-02-27 10:26:00,32.9,31.9,29.57,South,190,11.5,11.5,96,0.01,CLR,,0.03,WeatherDisplay:10.37,2013-02-27 16:26:00,
2013-02-27 10:31:00,33.0,32.0,29.58,SW,229,5.0,5.0,96,0.01,CLR,,0.03,WeatherDisplay:10.37,2013-02-27 16:31:00,
2013-02-27 10:36:00,33.0,32.0,29.58,SW,223,10.4,10.4,96,0.01,CLR,,0.03,WeatherDisplay:10.37,2013-02-27 16:36:00,
2013-02-27 10:41:00,32.9,31.9,29.57,SW,230,6.9,6.9,96,0.00,CLR,,0.03,WeatherDisplay:10.37,2013-02-27 16:41:00,
2013-02-27 10:46:00,33.0,32.0,29.58,SW,215,10.4,10.4,96,0.00,CLR,,0.03,WeatherDisplay:10.37,2013-02-27 16:46:00,
2013-02-27 10:51:00,33.0,32.0,29.58,SW,231,10.4,10.4,96,0.00,CLR,,0.03,WeatherDisplay:10.37,2013-02-27 16:51:00,
2013-02-27 10:56:00,32.9,31.9,29.58,WSW,246,10.4,10.4,96,0.00,CLR,,0.03,WeatherDisplay:10.37,2013-02-27 16:56:00,
2013-02-27 11:01:00,32.8,31.8,29.58,WSW,237,11.5,11.5,96,0.00,CLR,,0.03,WeatherDisplay:10.37,2013-02-27 17:01:00,
2013-02-27 11:07:00,32.8,31.8,29.58,SW,234,11.5,11.5,96,0.00,CLR,,0.03,WeatherDisplay:10.37,2013-02-27 17:07:00,
2013-02-27 11:12:00,32.8,31.8,29.58,SW,219,11.5,11.5,96,0.01,RA,,0.04,WeatherDisplay:10.37,2013-02-27 17:12:00,
2013-02-27 11:17:00,32.7,31.7,29.58,SW,219,15.0,15.0,96,0.01,RA,,0.04,WeatherDisplay:10.37,2013-02-27 17:17:00,
2013-02-27 11:22:00,32.7,31.7,29.58,SW,222,16.1,16.1,96,0.01,CLR,,0.04,WeatherDisplay:10.37,2013-02-27 17:22:00,
2013-02-27 11:27:00,32.7,31.7,29.58,SW,232,11.5,11.5,96,0.01,CLR,,0.04,WeatherDisplay:10.37,2013-02-27 17:27:00,
2013-02-27 11:32:00,32.6,31.6,29.58,SSW,198,12.7,12.7,96,0.01,CLR,,0.04,WeatherDisplay:10.37,2013-02-27 17:32:00,
2013-02-27 11:37:00,32.6,31.6,29.58,WSW,242,11.5,11.5,96,0.01,CLR,,0.04,WeatherDisplay:10.37,2013-02-27 17:37:00,
2013-02-27 11:42:00,32.6,31.6,29.58,WSW,250,12.7,12.7,96,0.01,CLR,,0.04,WeatherDisplay:10.37,2013-02-27 17:42:00,
2013-02-27 11:47:00,32.5,31.5,29.58,West,264,13.8,13.8,96,0.01,CLR,,0.04,WeatherDisplay:10.37,2013-02-27 17:47:00,
2013-02-27 11:52:00,32.5,31.5,29.58,WSW,254,10.4,10.4,96,0.01,CLR,,0.04,WeatherDisplay:10.37,2013-02-27 17:52:00,
2013-02-27 11:57:00,32.4,31.4,29.58,WSW,239,10.0,10.0,96,0.01,CLR,,0.04,WeatherDisplay:10.37,2013-02-27 17:57:00,
2013-02-27 12:02:00,32.4,31.1,29.58,West,269,5.8,5.8,95,0.01,CLR,,0.04,WeatherDisplay:10.37,2013-02-27 18:02:00,
2013-02-27 12:07:00,32.4,31.1,29.58,SW,218,5.8,5.8,95,0.01,CLR,,0.04,WeatherDisplay:10.37,2013-02-27 18:07:00,
2013-02-27 12:12:00,32.4,31.1,29.58,SW,227,9.2,9.2,95,0.00,CLR,,0.04,WeatherDisplay:10.37,2013-02-27 18:12:00,
2013-02-27 12:17:00,32.4,31.4,29.58,SSW,210,12.0,12.0,96,0.01,RA,,0.05,WeatherDisplay:10.37,2013-02-27 18:17:00,
2013-02-27 12:22:00,32.4,31.4,29.58,WSW,243,10.4,10.4,96,0.01,RA,,0.05,WeatherDisplay:10.37,2013-02-27 18:22:00,
2013-02-27 12:28:00,32.5,31.5,29.58,SW,224,9.2,9.2,96,0.01,,,0.05,WeatherDisplay:10.37,2013-02-27 18:28:00,
2013-02-27 12:33:00,32.4,31.1,29.58,SW,215,11.5,11.5,95,0.01,CLR,,0.05,WeatherDisplay:10.37,2013-02-27 18:33:00,
2013-02-27 12:38:00,32.6,31.3,29.58,SSW,213,6.9,6.9,95,0.01,CLR,,0.05,WeatherDisplay:10.37,2013-02-27 18:38:00,
2013-02-27 12:43:00,32.5,31.2,29.58,WSW,239,15.0,15.0,95,0.01,CLR,,0.05,WeatherDisplay:10.37,2013-02-27 18:43:00,
2013-02-27 12:48:00,32.5,31.2,29.58,SW,234,13.8,13.8,95,0.01,CLR,,0.05,WeatherDisplay:10.37,2013-02-27 18:48:00,
2013-02-27 12:53:00,32.5,31.2,29.58,SW,216,12.7,12.7,95,0.01,CLR,,0.05,WeatherDisplay:10.37,2013-02-27 18:53:00,
2013-02-27 12:58:00,32.5,31.2,29.58,WSW,258,13.8,13.8,95,0.01,CLR,,0.05,WeatherDisplay:10.37,2013-02-27 18:58:00,
2013-02-27 13:03:00,32.6,31.3,29.58,SW,217,15.0,15.0,95,0.01,CLR,,0.05,WeatherDisplay:10.37,2013-02-27 19:03:00,
2013-02-27 13:08:00,32.6,31.3,29.58,NW,316,12.7,12.7,95,0.01,CLR,,0.05,WeatherDisplay:10.37,2013-02-27 19:08:00,
2013-02-27 13:13:00,32.7,31.4,29.58,SW,235,16.1,16.1,95,0.01,CLR,,0.05,WeatherDisplay:10.37,2013-02-27 19:13:00,
2013-02-27 13:18:00,32.7,31.4,29.58,SSW,196,11.5,11.5,95,0.00,CLR,,0.05,WeatherDisplay:10.37,2013-02-27 19:18:00,
2013-02-27 13:23:00,32.8,31.5,29.58,SSW,198,11.5,11.5,95,0.00,CLR,,0.05,WeatherDisplay:10.37,2013-02-27 19:23:00,
2013-02-27 13:28:00,32.8,31.5,29.58,SW,219,11.5,11.5,95,0.00,CLR,,0.05,WeatherDisplay:10.37,2013-02-27 19:28:00,
2013-02-27 13:33:00,32.9,31.6,29.58,West,265,5.8,5.8,95,0.00,CLR,,0.05,WeatherDisplay:10.37,2013-02-27 19:33:00,
2013-02-27 13:38:00,32.9,31.4,29.58,WSW,242,17.3,17.3,94,0.00,CLR,,0.05,WeatherDisplay:10.37,2013-02-27 19:38:00,
2013-02-27 13:43:00,32.9,31.4,29.58,SW,229,13.8,13.8,94,0.00,CLR,,0.05,WeatherDisplay:10.37,2013-02-27 19:43:00,
2013-02-27 13:48:00,32.9,31.4,29.59,WSW,242,10.4,10.4,94,0.00,CLR,,0.05,WeatherDisplay:10.37,2013-02-27 19:48:00,
2013-02-27 13:53:00,33.0,31.5,29.58,SW,221,13.8,13.8,94,0.00,CLR,,0.05,WeatherDisplay:10.37,2013-02-27 19:53:00,